Airfield :







YOU CAN JOIN US ON...

 
LOGIN :

Register | Disclaimer

   EN    FR    IT 

 









Legend :    VFR   Marginal VFR   IFR   Intensive IFR   Very Intensive IFR
Visi :
Ceiling :
>= 8 km
>= 3000ft
5 to 8 km
1000 to 3000 ft
1500m to 5 km
500 to 1000 ft
800 to 1500m
200 to 500 ft
< 800m
< 200 ft
Symbols :   Thunderstorms  Fog  Heavy snow  Heavy precipitations  Wind > 20 kt






- Airport Elevation : 586 ft
- IATA code : YRJ


CYRJ - Roberval

CURRENT METAR :
  • 031500Z 32012G18KT 25SM FEW012 OVC019 19/17 A2974 RMK SF2SC6 SLP073 DENSITY ALT 1400FT

EXPIRED METARs :
  • 031435Z 32014G20KT 25SM FEW015 OVC036 18/17 A2972 RMK CF2SC6 SLP068 DENSITY ALT 1400FT
  • 031400Z 31011KT 4SM -SHRA SCT011 OVC017 18/17 A2970 RMK SF3SC5 CVCTV CLD EMBD SLP062 DENSITY ALT 1400FT
  • 031300Z 33012G18KT 8SM -SHRA FEW006 OVC014 17/17 A2967 RMK SF2SC6 CVCTV CLD EMBD SLP052 DENSITY ALT 1300FT
  • 031200Z 31012G18KT 2SM -SHRA BR OVC005 17/17 A2967 RMK RA3SC6 CVCTV CLD EMBD /R43/ SLP048 DENSITY ALT 1300FT

TAF AMD TAF CYRJ
Valid from the 03 at 14:00 until the 04 at 02:00 UTC


031447Z 0314/0402 32012G22KT P6SM FEW015 BKN040
TEMPO 0314/0402 5SM -SHRA BR BKN015 OVC040
BECMG 0321/0323 32010KT RMK NXT FCST BY 032000Z
CZUL FIR / North America



MET'MAP, your aeronautical weather chart ! - Copyright ORBIFLY December 2007 - Disclaimer

ORBIFLY MET'MAP TEAM :

Programming & Development : Alexandra Zaïnal
Concept & original design : Baudouin d'Aumeries
Assistance for programming : Marc-Olivier Méhu
Technical & hardware support : Manuel Goepfert

Contact : metmap@orbifly.com




SOURCES & CREDITS :

   NOAA